Time;durP1;ratioP1;P1;durP2;ratioP2;P2;SDS_P1;SDS_P2;PMS_P1;PMS_P2;Temp;Humidity;BMP_temperature;BMP_pressure;BME280_temperature;BME280_humidity;BME280_pressure;Samples;Min_cycle;Max_cycle;Signal;HPM_P1;HPM_P2
2021/12/13 00:02:23;;;;;;;0.43;0.43;;;;;;;;;;4975375;28;20228;-45
2021/12/13 00:05:06;;;;;;;0.20;0.20;;;;;;;;;;4974935;28;20178;-45
2021/12/13 00:07:34;;;;;;;0.30;0.30;;;;;;;;;;4972859;28;20249;-45
2021/12/13 00:10:07;;;;;;;0.20;0.20;;;;;;;;;;4970329;28;20186;-45
2021/12/13 00:12:37;;;;;;;0.30;0.30;;;;;;;;;;4968827;28;20504;-45
2021/12/13 00:15:07;;;;;;;0.30;0.30;;;;;;;;;;4968998;28;20186;-45
2021/12/13 00:17:38;;;;;;;0.40;0.40;;;;;;;;;;4974981;28;20193;-46
2021/12/13 00:20:13;;;;;;;0.30;0.30;;;;;;;;;;4973202;28;20182;-46
2021/12/13 00:22:46;;;;;;;0.30;0.30;;;;;;;;;;4976342;28;20213;-46
2021/12/13 00:25:17;;;;;;;0.40;0.40;;;;;;;;;;4970698;28;20228;-45
2021/12/13 00:27:46;;;;;;;0.55;0.35;;;;;;;;;;4975426;28;20236;-45
2021/12/13 00:30:18;;;;;;;0.32;0.30;;;;;;;;;;4951337;28;20526;-46
2021/12/13 00:32:52;;;;;;;0.25;0.25;;;;;;;;;;4975048;28;20226;-46
2021/12/13 00:35:22;;;;;;;0.32;0.30;;;;;;;;;;4962867;28;20186;-46
2021/12/13 00:37:57;;;;;;;0.30;0.30;;;;;;;;;;4964458;28;20187;-45
2021/12/13 00:40:26;;;;;;;0.20;0.20;;;;;;;;;;4971305;28;20185;-45
2021/12/13 00:42:56;;;;;;;0.28;0.28;;;;;;;;;;4966642;28;20178;-45
2021/12/13 00:45:24;;;;;;;0.30;0.30;;;;;;;;;;4973812;28;20542;-45
2021/12/13 00:47:50;;;;;;;0.30;0.30;;;;;;;;;;4971353;28;20186;-45
2021/12/13 00:50:16;;;;;;;0.35;0.35;;;;;;;;;;4966910;28;20241;-45
2021/12/13 00:52:45;;;;;;;0.30;0.30;;;;;;;;;;4966135;28;20186;-46
2021/12/13 00:55:14;;;;;;;0.50;0.30;;;;;;;;;;4970591;28;20186;-45
2021/12/13 00:57:40;;;;;;;0.30;0.30;;;;;;;;;;4974636;28;20569;-45
2021/12/13 01:00:10;;;;;;;0.20;0.20;;;;;;;;;;4967617;28;20194;-45
2021/12/13 01:02:40;;;;;;;0.20;0.20;;;;;;;;;;4966340;28;20217;-45
2021/12/13 01:05:09;;;;;;;0.20;0.20;;;;;;;;;;4973085;28;20178;-45
2021/12/13 01:07:54;;;;;;;0.15;0.15;;;;;;;;;;4972492;28;20205;-45
2021/12/13 01:10:38;;;;;;;0.30;0.30;;;;;;;;;;4970318;28;20193;-45
2021/12/13 01:13:05;;;;;;;0.20;0.20;;;;;;;;;;4969304;28;20189;-45
2021/12/13 01:15:37;;;;;;;0.22;0.22;;;;;;;;;;4939944;28;20647;-45
2021/12/13 01:18:29;;;;;;;0.15;0.15;;;;;;;;;;4975770;28;20583;-45
2021/12/13 01:21:11;;;;;;;0.30;0.30;;;;;;;;;;4970446;28;20253;-45
2021/12/13 01:23:47;;;;;;;0.30;0.30;;;;;;;;;;4971646;28;20174;-45
2021/12/13 01:28:46;;;;;;;0.20;0.20;;;;;;;;;;4974923;28;20182;-45
2021/12/13 01:31:17;;;;;;;0.20;0.20;;;;;;;;;;4975015;28;20599;-45
2021/12/13 01:33:46;;;;;;;0.30;0.30;;;;;;;;;;4973906;28;20190;-45
2021/12/13 01:36:14;;;;;;;0.20;0.20;;;;;;;;;;4973417;28;20240;-45
2021/12/13 01:38:47;;;;;;;0.20;0.20;;;;;;;;;;4972191;28;20204;-45
2021/12/13 01:41:20;;;;;;;0.30;0.30;;;;;;;;;;4974301;28;20221;-46
2021/12/13 01:43:51;;;;;;;0.20;0.20;;;;;;;;;;4966760;28;20170;-45
2021/12/13 01:46:19;;;;;;;0.20;0.20;;;;;;;;;;4974154;28;20635;-45
2021/12/13 01:48:46;;;;;;;0.28;0.28;;;;;;;;;;4973347;28;20201;-45
2021/12/13 01:51:13;;;;;;;0.30;0.30;;;;;;;;;;4966623;28;20197;-46
2021/12/13 01:53:44;;;;;;;0.28;0.28;;;;;;;;;;4962699;28;20845;-46
2021/12/13 01:56:35;;;;;;;0.10;0.10;;;;;;;;;;4954993;28;20529;-46
2021/12/13 01:59:04;;;;;;;0.28;0.28;;;;;;;;;;4965636;28;20198;-46
2021/12/13 02:01:30;;;;;;;0.30;0.30;;;;;;;;;;4964857;28;20288;-46
2021/12/13 02:04:04;;;;;;;0.30;0.30;;;;;;;;;;4970699;28;20224;-46
2021/12/13 02:06:36;;;;;;;0.15;0.15;;;;;;;;;;4970956;28;20196;-46
2021/12/13 02:09:15;;;;;;;0.30;0.30;;;;;;;;;;4974482;28;20186;-46
2021/12/13 02:11:42;;;;;;;0.38;0.38;;;;;;;;;;4970210;28;20178;-45
2021/12/13 02:14:13;;;;;;;0.20;0.20;;;;;;;;;;4967137;28;20186;-45
2021/12/13 02:19:32;;;;;;;0.20;0.20;;;;;;;;;;4968670;28;20240;-45
2021/12/13 02:22:04;;;;;;;0.10;0.10;;;;;;;;;;4961691;28;20218;-45
2021/12/13 02:24:30;;;;;;;0.10;0.10;;;;;;;;;;4971538;28;20264;-45
2021/12/13 02:26:59;;;;;;;0.20;0.20;;;;;;;;;;4973830;28;20200;-45
2021/12/13 02:29:30;;;;;;;0.55;0.20;;;;;;;;;;4973946;28;20268;-45
2021/12/13 02:31:56;;;;;;;0.10;0.10;;;;;;;;;;4966456;28;20207;-45
2021/12/13 02:34:22;;;;;;;0.17;0.17;;;;;;;;;;4972989;28;20236;-45
2021/12/13 02:36:50;;;;;;;0.20;0.20;;;;;;;;;;4969481;28;20194;-45
2021/12/13 02:39:19;;;;;;;0.20;0.20;;;;;;;;;;4968738;28;20173;-45
2021/12/13 02:41:46;;;;;;;0.20;0.20;;;;;;;;;;4969498;28;20578;-45
2021/12/13 02:44:17;;;;;;;0.30;0.30;;;;;;;;;;4968736;28;20233;-45
2021/12/13 02:46:44;;;;;;;0.10;0.10;;;;;;;;;;4970204;28;20190;-45
2021/12/13 02:49:11;;;;;;;0.10;0.10;;;;;;;;;;4965821;28;20190;-45
2021/12/13 02:51:40;;;;;;;0.17;0.17;;;;;;;;;;4958224;28;20195;-46
2021/12/13 02:54:09;;;;;;;0.10;0.10;;;;;;;;;;4964502;28;20229;-46
2021/12/13 02:56:41;;;;;;;0.20;0.20;;;;;;;;;;4955778;28;20194;-46
2021/12/13 02:59:09;;;;;;;0.20;0.20;;;;;;;;;;4967997;28;20202;-45
2021/12/13 03:01:39;;;;;;;0.10;0.10;;;;;;;;;;4970209;28;20323;-45
2021/12/13 03:04:07;;;;;;;0.10;0.10;;;;;;;;;;4960645;28;20182;-45
2021/12/13 03:06:35;;;;;;;0.20;0.20;;;;;;;;;;4972855;28;20225;-45
2021/12/13 03:09:05;;;;;;;0.17;0.17;;;;;;;;;;4976979;28;20185;-45
2021/12/13 03:11:33;;;;;;;0.10;0.10;;;;;;;;;;4968255;28;20269;-46
2021/12/13 03:13:59;;;;;;;0.10;0.10;;;;;;;;;;4976195;28;20216;-45
2021/12/13 03:16:30;;;;;;;0.10;0.10;;;;;;;;;;4966430;28;20264;-45
2021/12/13 03:19:03;;;;;;;0.20;0.20;;;;;;;;;;4969686;28;20685;-45
2021/12/13 03:21:46;;;;;;;0.10;0.10;;;;;;;;;;4975608;28;20252;-45
2021/12/13 03:24:31;;;;;;;0.08;0.08;;;;;;;;;;4975796;28;20186;-45
2021/12/13 03:27:15;;;;;;;0.15;0.13;;;;;;;;;;4965685;28;20216;-45
2021/12/13 03:29:41;;;;;;;0.20;0.13;;;;;;;;;;4967109;28;20186;-45
2021/12/13 03:32:10;;;;;;;0.10;0.10;;;;;;;;;;4975395;28;20197;-45
2021/12/13 03:34:38;;;;;;;0.28;0.28;;;;;;;;;;4975216;28;20613;-45
2021/12/13 03:37:10;;;;;;;0.10;0.10;;;;;;;;;;4971144;28;20277;-45
2021/12/13 03:39:41;;;;;;;0.10;0.10;;;;;;;;;;4974424;28;20186;-45
2021/12/13 03:42:10;;;;;;;0.22;0.22;;;;;;;;;;4967687;28;20209;-45
2021/12/13 03:44:38;;;;;;;0.28;0.28;;;;;;;;;;4972144;28;20178;-45
2021/12/13 03:47:08;;;;;;;0.05;0.05;;;;;;;;;;4971771;28;20178;-45
2021/12/13 03:49:40;;;;;;;0.10;0.10;;;;;;;;;;4965766;28;20190;-45
2021/12/13 03:52:08;;;;;;;0.10;0.10;;;;;;;;;;4962198;28;20187;-46
2021/12/13 03:54:36;;;;;;;0.10;0.10;;;;;;;;;;4973828;28;20193;-45
2021/12/13 03:57:04;;;;;;;0.00;0.00;;;;;;;;;;4974524;28;20198;-45
2021/12/13 03:59:34;;;;;;;0.10;0.10;;;;;;;;;;4970550;28;20548;-45
2021/12/13 04:02:01;;;;;;;0.00;0.00;;;;;;;;;;4969421;28;20228;-46
2021/12/13 04:04:37;;;;;;;0.10;0.10;;;;;;;;;;4975071;28;20330;-45
2021/12/13 04:07:15;;;;;;;0.10;0.10;;;;;;;;;;4964668;28;20206;-45
2021/12/13 04:09:42;;;;;;;0.10;0.10;;;;;;;;;;4975147;28;20224;-45
2021/12/13 04:12:09;;;;;;;0.00;0.00;;;;;;;;;;4972339;28;20272;-45
2021/12/13 04:14:42;;;;;;;0.10;0.10;;;;;;;;;;4974349;28;20508;-45
2021/12/13 04:17:21;;;;;;;0.20;0.20;;;;;;;;;;4976125;28;20186;-45
2021/12/13 04:19:53;;;;;;;0.17;0.15;;;;;;;;;;4975096;28;20201;-45
2021/12/13 04:22:28;;;;;;;0.00;0.00;;;;;;;;;;4975727;28;20213;-45
2021/12/13 04:24:56;;;;;;;0.10;0.10;;;;;;;;;;4965117;28;20178;-45
2021/12/13 04:27:30;;;;;;;0.15;0.15;;;;;;;;;;4972483;28;20178;-45
2021/12/13 04:29:59;;;;;;;0.10;0.10;;;;;;;;;;4971195;28;20173;-45
2021/12/13 04:32:30;;;;;;;0.10;0.10;;;;;;;;;;4958637;28;20302;-45
2021/12/13 04:34:59;;;;;;;0.10;0.10;;;;;;;;;;4966357;28;20182;-45
2021/12/13 04:37:26;;;;;;;0.10;0.10;;;;;;;;;;4974559;28;20194;-45
2021/12/13 04:39:55;;;;;;;0.10;0.10;;;;;;;;;;4962746;28;20191;-45
2021/12/13 04:42:22;;;;;;;0.10;0.10;;;;;;;;;;4971644;28;20209;-45
2021/12/13 04:44:50;;;;;;;0.20;0.20;;;;;;;;;;4973761;28;20193;-45
2021/12/13 04:47:22;;;;;;;0.00;0.00;;;;;;;;;;4967565;28;20187;-45
2021/12/13 04:49:53;;;;;;;0.13;0.13;;;;;;;;;;4974685;28;20174;-45
2021/12/13 04:52:21;;;;;;;0.20;0.20;;;;;;;;;;4965971;28;20273;-45
2021/12/13 04:54:49;;;;;;;0.10;0.10;;;;;;;;;;4960457;28;20217;-45
2021/12/13 04:57:16;;;;;;;0.03;0.03;;;;;;;;;;4963583;28;20217;-45
2021/12/13 04:59:47;;;;;;;0.10;0.10;;;;;;;;;;4962820;28;20182;-45
2021/12/13 05:02:13;;;;;;;0.17;0.17;;;;;;;;;;4966769;28;20229;-45
2021/12/13 05:04:39;;;;;;;0.20;0.20;;;;;;;;;;4964681;28;20198;-45
2021/12/13 05:07:06;;;;;;;0.10;0.10;;;;;;;;;;4971805;28;20333;-45
2021/12/13 05:09:33;;;;;;;0.20;0.20;;;;;;;;;;4964662;28;20421;-45
2021/12/13 05:12:02;;;;;;;0.32;0.30;;;;;;;;;;4970020;28;20186;-45
2021/12/13 05:14:40;;;;;;;0.10;0.10;;;;;;;;;;4958824;28;20213;-45
2021/12/13 05:17:14;;;;;;;0.10;0.10;;;;;;;;;;4975208;28;20185;-46
2021/12/13 05:19:43;;;;;;;0.10;0.10;;;;;;;;;;4974589;28;20189;-45
2021/12/13 05:22:10;;;;;;;0.00;0.00;;;;;;;;;;4965790;28;20219;-45
2021/12/13 05:24:42;;;;;;;0.70;0.17;;;;;;;;;;4972148;28;20193;-45
2021/12/13 05:27:10;;;;;;;1.65;0.30;;;;;;;;;;4974943;28;20182;-45
2021/12/13 05:29:40;;;;;;;1.98;0.57;;;;;;;;;;4974003;28;20233;-45
2021/12/13 05:32:27;;;;;;;0.50;0.40;;;;;;;;;;4967150;28;20199;-46
2021/12/13 05:34:58;;;;;;;4.07;0.60;;;;;;;;;;4946069;29;20182;-46
2021/12/13 05:37:25;;;;;;;1.27;0.50;;;;;;;;;;4968991;28;20190;-44
2021/12/13 05:39:54;;;;;;;2.85;0.63;;;;;;;;;;4963623;28;20182;-44
2021/12/13 05:42:20;;;;;;;2.80;0.73;;;;;;;;;;4969827;28;20226;-50
2021/12/13 05:44:47;;;;;;;3.30;0.85;;;;;;;;;;4972635;28;20186;-41
2021/12/13 05:47:21;;;;;;;4.00;1.00;;;;;;;;;;4973184;28;20189;-44
2021/12/13 05:49:48;;;;;;;5.10;1.25;;;;;;;;;;4966601;28;20198;-47
2021/12/13 05:52:19;;;;;;;1.50;0.98;;;;;;;;;;4966060;28;20189;-44
2021/12/13 05:54:50;;;;;;;2.78;0.95;;;;;;;;;;4969114;28;20216;-48
2021/12/13 05:57:21;;;;;;;4.57;0.98;;;;;;;;;;4964525;28;20249;-46
2021/12/13 06:00:06;;;;;;;6.97;1.13;;;;;;;;;;4969198;28;20185;-45
2021/12/13 06:02:51;;;;;;;1.70;1.10;;;;;;;;;;4972829;28;20225;-44
2021/12/13 06:05:24;;;;;;;3.80;1.20;;;;;;;;;;4971827;28;20189;-48
2021/12/13 06:08:10;;;;;;;1.60;0.80;;;;;;;;;;4964625;28;20178;-49
2021/12/13 06:10:40;;;;;;;2.15;0.88;;;;;;;;;;4972810;28;20213;-52
2021/12/13 06:13:14;;;;;;;2.83;1.02;;;;;;;;;;4964983;28;20182;-45
2021/12/13 06:15:42;;;;;;;1.70;0.88;;;;;;;;;;4968318;28;20185;-47
2021/12/13 06:18:08;;;;;;;4.07;1.00;;;;;;;;;;4970640;28;20204;-46
2021/12/13 06:20:37;;;;;;;4.63;1.30;;;;;;;;;;4972162;28;20182;-49
2021/12/13 06:23:09;;;;;;;2.42;0.90;;;;;;;;;;4965610;28;20219;-45
2021/12/13 06:25:36;;;;;;;1.58;0.82;;;;;;;;;;4972909;28;20185;-48
2021/12/13 06:28:02;;;;;;;2.60;1.10;;;;;;;;;;4970426;28;20221;-47
2021/12/13 06:30:38;;;;;;;3.33;1.15;;;;;;;;;;4966535;28;20173;-45
2021/12/13 06:33:09;;;;;;;3.50;1.25;;;;;;;;;;4967903;28;20247;-46
2021/12/13 06:35:35;;;;;;;3.03;1.40;;;;;;;;;;4971071;28;20194;-45
2021/12/13 06:38:22;;;;;;;2.45;1.00;;;;;;;;;;4965852;28;20185;-47
2021/12/13 06:40:53;;;;;;;1.70;0.95;;;;;;;;;;4965210;28;20186;-41
2021/12/13 06:43:34;;;;;;;1.98;0.80;;;;;;;;;;4966552;28;20221;-46
2021/12/13 06:46:01;;;;;;;2.65;0.90;;;;;;;;;;4965530;28;20224;-42
2021/12/13 06:48:39;;;;;;;2.22;1.10;;;;;;;;;;4975799;28;20233;-42
2021/12/13 06:51:07;;;;;;;3.70;0.85;;;;;;;;;;4967450;28;20201;-48
2021/12/13 06:53:33;;;;;;;1.25;1.00;;;;;;;;;;4972708;28;20557;-49
2021/12/13 06:55:59;;;;;;;2.38;0.90;;;;;;;;;;4977603;28;20209;-44
2021/12/13 06:58:28;;;;;;;2.28;0.90;;;;;;;;;;4971254;28;20182;-45
2021/12/13 07:00:57;;;;;;;1.27;0.90;;;;;;;;;;4977143;28;20224;-44
2021/12/13 07:03:26;;;;;;;4.05;0.80;;;;;;;;;;4975332;28;20190;-47
2021/12/13 07:05:54;;;;;;;2.15;0.98;;;;;;;;;;4972097;28;20193;-49
2021/12/13 07:08:20;;;;;;;1.73;0.95;;;;;;;;;;4972544;28;20177;-48
2021/12/13 07:10:57;;;;;;;1.95;0.90;;;;;;;;;;4969746;28;20185;-49
2021/12/13 07:13:31;;;;;;;3.78;1.10;;;;;;;;;;4967548;28;20229;-44
2021/12/13 07:15:57;;;;;;;1.35;1.00;;;;;;;;;;4976761;28;20228;-43
2021/12/13 07:18:29;;;;;;;3.90;1.13;;;;;;;;;;4975838;28;20478;-45
2021/12/13 07:20:56;;;;;;;2.08;1.33;;;;;;;;;;4969137;28;20194;-51
2021/12/13 07:23:23;;;;;;;2.38;0.80;;;;;;;;;;4975237;28;20197;-45
2021/12/13 07:25:51;;;;;;;3.13;1.08;;;;;;;;;;4962343;28;20192;-46
2021/12/13 07:28:32;;;;;;;1.98;0.88;;;;;;;;;;4976078;28;20197;-46
2021/12/13 07:30:58;;;;;;;2.35;1.30;;;;;;;;;;4960072;28;20426;-46
2021/12/13 07:33:44;;;;;;;2.13;0.90;;;;;;;;;;4962567;28;20190;-46
2021/12/13 07:36:14;;;;;;;1.55;1.10;;;;;;;;;;4972949;28;20258;-46
2021/12/13 07:38:49;;;;;;;3.88;1.08;;;;;;;;;;4968182;28;20201;-45
2021/12/13 07:41:15;;;;;;;6.18;1.63;;;;;;;;;;4972148;28;20625;-46
2021/12/13 07:43:44;;;;;;;71.22;44.42;;;;;;;;;;4968698;28;20206;-48
2021/12/13 07:46:12;;;;;;;79.32;52.42;;;;;;;;;;4973830;28;20213;-43
2021/12/13 07:48:41;;;;;;;377.00;262.55;;;;;;;;;;4971782;28;20650;-46
2021/12/13 07:53:48;;;;;;;611.75;457.90;;;;;;;;;;5129858;27;20506;-47
2021/12/13 07:56:20;;;;;;;561.22;395.02;;;;;;;;;;5114705;28;20178;-45
2021/12/13 07:58:47;;;;;;;417.13;270.10;;;;;;;;;;5103383;28;20212;-50
2021/12/13 08:01:16;;;;;;;441.95;290.92;;;;;;;;;;5118972;28;20268;-50
2021/12/13 08:03:48;;;;;;;413.02;265.58;;;;;;;;;;5119773;28;20176;-49
2021/12/13 08:06:14;;;;;;;378.45;238.65;;;;;;;;;;5113906;28;20577;-46
2021/12/13 08:08:55;;;;;;;364.33;218.45;;;;;;;;;;5110523;28;20188;-49
2021/12/13 08:11:33;;;;;;;323.33;192.90;;;;;;;;;;5116103;28;20272;-49
2021/12/13 08:13:59;;;;;;;295.98;174.57;;;;;;;;;;5109580;28;20177;-49
2021/12/13 08:16:45;;;;;;;262.30;157.68;;;;;;;;;;5119441;28;20180;-48
2021/12/13 08:19:14;;;;;;;237.70;139.07;;;;;;;;;;5113496;28;20187;-49
2021/12/13 08:21:43;;;;;;;215.23;129.20;;;;;;;;;;5114791;28;20188;-49
2021/12/13 08:24:16;;;;;;;191.13;116.93;;;;;;;;;;5111740;28;20185;-48
2021/12/13 08:26:43;;;;;;;194.40;116.63;;;;;;;;;;5111463;28;20192;-50
2021/12/13 08:29:12;;;;;;;175.32;107.75;;;;;;;;;;5107798;28;20204;-50
2021/12/13 08:31:39;;;;;;;163.07;100.25;;;;;;;;;;5099573;28;20204;-48
2021/12/13 08:34:14;;;;;;;158.98;96.07;;;;;;;;;;5109842;28;20445;-48
2021/12/13 08:36:42;;;;;;;155.93;89.47;;;;;;;;;;5117491;28;20239;-53
2021/12/13 08:39:26;;;;;;;145.43;83.93;;;;;;;;;;5107830;28;20238;-47
2021/12/13 08:41:52;;;;;;;140.32;79.57;;;;;;;;;;5110553;28;20586;-46
2021/12/13 08:44:32;;;;;;;134.77;78.50;;;;;;;;;;5107772;28;20186;-46
2021/12/13 08:47:06;;;;;;;122.40;71.45;;;;;;;;;;5090206;28;20192;-45
2021/12/13 08:49:51;;;;;;;114.78;68.75;;;;;;;;;;5117625;28;20188;-44
2021/12/13 08:52:33;;;;;;;113.13;63.97;;;;;;;;;;5118292;28;20212;-49
2021/12/13 08:55:03;;;;;;;110.18;65.85;;;;;;;;;;5124698;28;20245;-50
2021/12/13 08:57:29;;;;;;;102.95;60.72;;;;;;;;;;5108162;28;20642;-49
2021/12/13 08:59:56;;;;;;;96.07;57.80;;;;;;;;;;5115492;28;20212;-50
2021/12/13 09:02:26;;;;;;;100.90;58.70;;;;;;;;;;5127895;28;20209;-51
2021/12/13 09:04:59;;;;;;;96.80;56.58;;;;;;;;;;5108946;28;20219;-48
2021/12/13 09:07:25;;;;;;;90.80;54.40;;;;;;;;;;5099795;28;20218;-47
2021/12/13 09:09:52;;;;;;;87.63;52.67;;;;;;;;;;5098149;28;20228;-50
2021/12/13 09:12:27;;;;;;;85.47;51.28;;;;;;;;;;5109775;28;20207;-50
2021/12/13 09:14:56;;;;;;;85.85;51.28;;;;;;;;;;5112627;28;20260;-47
2021/12/13 09:17:26;;;;;;;80.82;50.25;;;;;;;;;;5110354;28;20241;-50
2021/12/13 09:19:54;;;;;;;80.00;50.45;;;;;;;;;;5108323;28;20188;-48
2021/12/13 09:22:21;;;;;;;76.97;47.70;;;;;;;;;;5104359;28;20188;-51
2021/12/13 09:24:46;;;;;;;75.10;46.38;;;;;;;;;;5103824;28;20505;-51
2021/12/13 09:27:12;;;;;;;82.00;47.55;;;;;;;;;;5115649;28;20173;-51
2021/12/13 09:29:53;;;;;;;69.88;46.30;;;;;;;;;;5099181;28;20188;-52
2021/12/13 09:32:23;;;;;;;71.10;43.55;;;;;;;;;;5105576;28;20228;-50
2021/12/13 09:34:51;;;;;;;63.17;41.67;;;;;;;;;;5110126;28;20187;-51
2021/12/13 09:37:18;;;;;;;66.75;41.78;;;;;;;;;;5114526;28;20253;-47
2021/12/13 09:39:45;;;;;;;68.97;41.90;;;;;;;;;;5095614;28;20608;-51
2021/12/13 09:42:15;;;;;;;69.70;40.20;;;;;;;;;;5098682;28;20252;-46
2021/12/13 09:44:48;;;;;;;65.35;39.75;;;;;;;;;;5113280;28;20196;-50
2021/12/13 09:47:14;;;;;;;63.65;38.67;;;;;;;;;;5115225;28;20169;-49
2021/12/13 09:49:45;;;;;;;62.65;38.75;;;;;;;;;;5106680;28;20492;-47
2021/12/13 09:52:27;;;;;;;61.60;38.00;;;;;;;;;;5113748;28;20212;-50
2021/12/13 09:54:55;;;;;;;58.40;36.83;;;;;;;;;;5105570;28;20174;-49
2021/12/13 09:57:25;;;;;;;56.95;36.28;;;;;;;;;;5094007;28;20677;-48
2021/12/13 09:59:53;;;;;;;56.33;35.95;;;;;;;;;;5103242;28;20187;-48
2021/12/13 10:02:31;;;;;;;55.70;35.67;;;;;;;;;;5113473;28;20180;-47
2021/12/13 10:04:58;;;;;;;48.22;33.30;;;;;;;;;;5101471;28;20226;-48
2021/12/13 10:07:29;;;;;;;55.35;34.22;;;;;;;;;;5113119;28;20463;-49
2021/12/13 10:09:57;;;;;;;51.53;31.63;;;;;;;;;;5096147;28;20264;-48
2021/12/13 10:12:27;;;;;;;47.95;32.17;;;;;;;;;;5113187;28;20196;-51
2021/12/13 10:14:58;;;;;;;52.50;33.15;;;;;;;;;;5114306;28;20161;-47
2021/12/13 10:17:26;;;;;;;49.63;31.92;;;;;;;;;;5112801;28;20165;-49
2021/12/13 10:19:54;;;;;;;53.17;34.28;;;;;;;;;;5100014;28;20185;-48
2021/12/13 10:22:22;;;;;;;46.97;31.08;;;;;;;;;;5113058;28;20213;-49
2021/12/13 10:24:54;;;;;;;45.15;30.02;;;;;;;;;;5103751;28;20483;-47
2021/12/13 10:27:20;;;;;;;46.83;29.70;;;;;;;;;;5109608;28;20574;-46
2021/12/13 10:29:53;;;;;;;46.55;30.60;;;;;;;;;;5104086;28;20237;-45
2021/12/13 10:32:24;;;;;;;46.75;30.60;;;;;;;;;;5079525;28;20449;-47
2021/12/13 10:34:52;;;;;;;43.95;28.95;;;;;;;;;;5099957;28;20175;-47
2021/12/13 10:37:22;;;;;;;44.10;27.98;;;;;;;;;;5113520;28;20225;-51
2021/12/13 10:39:50;;;;;;;42.50;28.00;;;;;;;;;;5094409;28;20187;-49
2021/12/13 10:42:22;;;;;;;41.53;28.00;;;;;;;;;;5114549;28;20551;-50
2021/12/13 10:44:48;;;;;;;41.95;26.00;;;;;;;;;;5106126;28;20176;-48
2021/12/13 10:47:21;;;;;;;43.65;26.75;;;;;;;;;;5114732;28;20196;-47
2021/12/13 10:49:49;;;;;;;42.30;25.90;;;;;;;;;;5095938;28;20216;-50
2021/12/13 10:52:41;;;;;;;39.72;26.27;;;;;;;;;;5108703;28;20603;-49
2021/12/13 10:55:13;;;;;;;35.85;24.75;;;;;;;;;;5101601;28;20193;-49
2021/12/13 10:57:44;;;;;;;40.35;25.40;;;;;;;;;;5111289;28;20460;-48
2021/12/13 11:00:12;;;;;;;41.65;25.55;;;;;;;;;;5095986;28;20473;-49
2021/12/13 11:02:39;;;;;;;38.92;24.40;;;;;;;;;;5100888;28;20201;-49
2021/12/13 11:05:10;;;;;;;36.83;23.80;;;;;;;;;;5108114;28;20613;-49
2021/12/13 11:07:37;;;;;;;36.20;24.05;;;;;;;;;;5095507;28;20265;-49
2021/12/13 11:10:04;;;;;;;38.38;24.23;;;;;;;;;;5105367;28;20495;-49
2021/12/13 11:12:35;;;;;;;36.15;23.50;;;;;;;;;;5110672;28;20211;-49
2021/12/13 11:15:04;;;;;;;35.40;24.45;;;;;;;;;;5112249;28;20189;-49
2021/12/13 11:17:33;;;;;;;36.25;23.92;;;;;;;;;;5071387;28;20436;-49
2021/12/13 11:20:02;;;;;;;38.30;22.73;;;;;;;;;;5092427;28;20212;-48
2021/12/13 11:22:30;;;;;;;32.47;21.65;;;;;;;;;;5110486;28;20610;-48
2021/12/13 11:24:58;;;;;;;36.08;22.25;;;;;;;;;;5099956;28;20190;-48
2021/12/13 11:27:27;;;;;;;33.63;20.85;;;;;;;;;;5104053;28;20190;-48
2021/12/13 11:29:54;;;;;;;32.28;20.30;;;;;;;;;;5106010;28;20643;-49
2021/12/13 11:32:39;;;;;;;30.02;19.10;;;;;;;;;;5096453;28;20217;-49
2021/12/13 11:35:05;;;;;;;35.35;21.17;;;;;;;;;;5102222;28;20212;-48
2021/12/13 11:37:50;;;;;;;32.03;20.55;;;;;;;;;;5109375;28;20233;-48
2021/12/13 11:40:27;;;;;;;27.95;19.02;;;;;;;;;;5106293;28;20191;-50
2021/12/13 11:43:11;;;;;;;66.40;41.45;;;;;;;;;;5082449;28;20185;-49
2021/12/13 11:45:55;;;;;;;63.58;39.95;;;;;;;;;;5111363;28;20188;-48
2021/12/13 11:48:23;;;;;;;114.43;76.55;;;;;;;;;;5092035;28;20212;-46
2021/12/13 11:51:04;;;;;;;631.30;386.23;;;;;;;;;;5104959;28;20180;-49
2021/12/13 11:53:31;;;;;;;351.30;212.82;;;;;;;;;;5110515;28;20895;-46
2021/12/13 11:56:16;;;;;;;344.30;207.05;;;;;;;;;;5113623;28;20169;-47
2021/12/13 11:59:01;;;;;;;269.52;160.30;;;;;;;;;;5096037;28;20631;-46
2021/12/13 12:01:47;;;;;;;277.02;164.50;;;;;;;;;;5110987;28;20185;-50
2021/12/13 12:04:25;;;;;;;277.20;166.05;;;;;;;;;;5097483;28;20176;-49
2021/12/13 12:07:09;;;;;;;269.05;154.43;;;;;;;;;;5094993;28;20258;-48
2021/12/13 12:09:36;;;;;;;238.50;143.38;;;;;;;;;;5102947;28;20178;-50
2021/12/13 12:12:20;;;;;;;243.13;144.98;;;;;;;;;;5110137;28;20208;-50
2021/12/13 12:14:58;;;;;;;222.63;136.23;;;;;;;;;;5084930;28;20240;-47
2021/12/13 12:17:24;;;;;;;214.77;130.50;;;;;;;;;;5098761;28;20170;-49
2021/12/13 12:19:51;;;;;;;208.82;125.93;;;;;;;;;;5094170;28;20209;-50
2021/12/13 12:22:19;;;;;;;202.15;124.70;;;;;;;;;;5112209;28;20181;-47
2021/12/13 12:24:47;;;;;;;197.77;119.25;;;;;;;;;;5111909;28;20472;-49
2021/12/13 12:27:18;;;;;;;194.95;118.75;;;;;;;;;;5102690;28;20227;-47
2021/12/13 12:29:52;;;;;;;188.95;116.45;;;;;;;;;;5093184;28;20451;-46
2021/12/13 12:32:24;;;;;;;181.30;109.47;;;;;;;;;;5105395;28;20204;-47
2021/12/13 12:34:53;;;;;;;170.52;106.20;;;;;;;;;;5091267;28;20560;-47
2021/12/13 12:37:25;;;;;;;162.63;103.20;;;;;;;;;;5102673;28;20260;-48
2021/12/13 12:39:57;;;;;;;170.80;103.15;;;;;;;;;;5107235;28;20185;-48
2021/12/13 12:42:28;;;;;;;159.07;98.78;;;;;;;;;;5103184;28;20196;-47
2021/12/13 12:44:54;;;;;;;162.45;100.30;;;;;;;;;;5096065;28;20558;-48
2021/12/13 12:47:36;;;;;;;152.30;91.80;;;;;;;;;;5088666;28;20260;-49
2021/12/13 12:50:12;;;;;;;150.48;92.40;;;;;;;;;;5115143;28;20616;-47
2021/12/13 12:52:53;;;;;;;142.65;87.28;;;;;;;;;;5109267;28;20225;-44
2021/12/13 12:55:21;;;;;;;145.15;86.88;;;;;;;;;;5116374;28;20180;-46
2021/12/13 12:57:47;;;;;;;135.95;82.35;;;;;;;;;;5099150;28;20545;-47
2021/12/13 13:00:14;;;;;;;131.63;81.43;;;;;;;;;;5096566;28;20170;-44
2021/12/13 13:02:40;;;;;;;135.05;79.35;;;;;;;;;;5095424;28;20186;-45
2021/12/13 13:05:09;;;;;;;123.40;75.15;;;;;;;;;;5095943;28;20209;-44
2021/12/13 13:07:37;;;;;;;120.65;74.93;;;;;;;;;;5095707;28;20593;-45
2021/12/13 13:10:23;;;;;;;120.22;71.45;;;;;;;;;;5096453;28;20170;-46
2021/12/13 13:12:50;;;;;;;114.78;67.72;;;;;;;;;;5095184;28;20195;-46
2021/12/13 13:15:21;;;;;;;113.00;65.78;;;;;;;;;;5091520;28;20167;-45
2021/12/13 13:17:48;;;;;;;105.18;62.53;;;;;;;;;;5075227;28;20205;-44
2021/12/13 13:20:17;;;;;;;104.15;63.33;;;;;;;;;;5084973;28;20188;-47
2021/12/13 13:22:44;;;;;;;102.25;62.13;;;;;;;;;;5109786;28;20173;-48
2021/12/13 13:25:21;;;;;;;105.68;64.10;;;;;;;;;;5097632;28;20590;-47
2021/12/13 13:27:48;;;;;;;96.32;58.60;;;;;;;;;;5096719;28;20581;-48
2021/12/13 13:30:26;;;;;;;97.60;58.85;;;;;;;;;;5106183;28;20474;-46
2021/12/13 13:32:52;;;;;;;91.95;57.80;;;;;;;;;;5110988;28;20516;-45
2021/12/13 13:35:19;;;;;;;91.03;55.58;;;;;;;;;;5115791;28;20175;-47
2021/12/13 13:37:45;;;;;;;89.30;53.88;;;;;;;;;;5113668;28;20177;-46
2021/12/13 13:40:14;;;;;;;88.97;53.78;;;;;;;;;;5111326;28;20177;-46
2021/12/13 13:42:41;;;;;;;85.07;52.83;;;;;;;;;;5086253;28;20185;-47
2021/12/13 13:45:10;;;;;;;81.97;52.55;;;;;;;;;;5108785;28;20261;-47
2021/12/13 13:47:38;;;;;;;81.25;50.10;;;;;;;;;;5112314;28;20183;-47
2021/12/13 13:50:19;;;;;;;79.18;48.42;;;;;;;;;;5107253;28;20181;-48
2021/12/13 13:52:45;;;;;;;76.22;46.45;;;;;;;;;;5104390;28;20607;-47
2021/12/13 13:55:23;;;;;;;73.45;47.15;;;;;;;;;;5114361;28;20181;-48
2021/12/13 13:57:51;;;;;;;72.53;44.35;;;;;;;;;;5103806;28;20177;-47
2021/12/13 14:00:18;;;;;;;69.90;44.92;;;;;;;;;;5114323;28;20260;-47
2021/12/13 14:02:45;;;;;;;64.18;42.33;;;;;;;;;;5110610;28;20183;-46
2021/12/13 14:05:12;;;;;;;67.95;42.10;;;;;;;;;;5107573;28;20181;-46
2021/12/13 14:07:39;;;;;;;67.72;44.20;;;;;;;;;;5113100;28;20206;-49
2021/12/13 14:10:10;;;;;;;72.38;43.20;;;;;;;;;;5115210;28;20173;-49
2021/12/13 14:12:39;;;;;;;61.22;37.25;;;;;;;;;;5100043;28;20229;-46
2021/12/13 14:15:05;;;;;;;59.30;37.53;;;;;;;;;;5103276;28;20168;-47
2021/12/13 14:17:37;;;;;;;65.63;37.03;;;;;;;;;;5111854;28;20177;-46
2021/12/13 14:20:15;;;;;;;52.58;36.13;;;;;;;;;;5093994;28;20303;-47
2021/12/13 14:22:41;;;;;;;54.45;37.03;;;;;;;;;;5105884;28;21258;-48
